sensor_id;sensor_type;location;lat;lon;timestamp;pressure;altitude;pressure_sealevel;temperature;humidity
74228;BME280;62587;52.352;5.006;2023-01-26T00:01:43;102429.09;;;20.92;32.38
74228;BME280;62587;52.352;5.006;2023-01-26T00:04:09;102434.31;;;20.93;32.50
74228;BME280;62587;52.352;5.006;2023-01-26T00:06:35;102427.34;;;20.91;32.47
74228;BME280;62587;52.352;5.006;2023-01-26T00:09:00;102430.00;;;20.91;32.21
74228;BME280;62587;52.352;5.006;2023-01-26T00:11:27;102425.56;;;20.91;32.24
74228;BME280;62587;52.352;5.006;2023-01-26T00:13:54;102419.44;;;20.89;32.34
74228;BME280;62587;52.352;5.006;2023-01-26T00:16:20;102416.84;;;20.88;32.35
74228;BME280;62587;52.352;5.006;2023-01-26T00:18:46;102409.25;;;20.80;32.54
74228;BME280;62587;52.352;5.006;2023-01-26T00:21:17;102404.94;;;20.78;32.41
74228;BME280;62587;52.352;5.006;2023-01-26T00:23:43;102404.28;;;20.73;32.61
74228;BME280;62587;52.352;5.006;2023-01-26T00:26:11;102407.06;;;20.69;32.73
74228;BME280;62587;52.352;5.006;2023-01-26T00:28:38;102398.88;;;20.74;32.47
74228;BME280;62587;52.352;5.006;2023-01-26T00:31:05;102394.75;;;20.86;32.36
74228;BME280;62587;52.352;5.006;2023-01-26T00:33:30;102384.75;;;20.91;32.33
74228;BME280;62587;52.352;5.006;2023-01-26T00:35:56;102390.06;;;20.91;32.44
74228;BME280;62587;52.352;5.006;2023-01-26T00:38:22;102387.50;;;20.89;32.35
74228;BME280;62587;52.352;5.006;2023-01-26T00:40:47;102386.41;;;20.93;32.12
74228;BME280;62587;52.352;5.006;2023-01-26T00:43:13;102388.28;;;20.91;32.23
74228;BME280;62587;52.352;5.006;2023-01-26T00:45:38;102383.47;;;20.99;32.11
74228;BME280;62587;52.352;5.006;2023-01-26T00:48:03;102383.38;;;21.01;31.93
74228;BME280;62587;52.352;5.006;2023-01-26T00:50:29;102384.97;;;21.05;32.12
74228;BME280;62587;52.352;5.006;2023-01-26T00:52:54;102375.97;;;21.07;32.24
74228;BME280;62587;52.352;5.006;2023-01-26T00:55:19;102379.22;;;21.14;31.97
74228;BME280;62587;52.352;5.006;2023-01-26T00:57:45;102377.38;;;21.14;32.16
74228;BME280;62587;52.352;5.006;2023-01-26T01:00:11;102377.88;;;21.22;31.74
74228;BME280;62587;52.352;5.006;2023-01-26T01:02:41;102374.59;;;21.17;32.10
74228;BME280;62587;52.352;5.006;2023-01-26T01:05:07;102374.59;;;21.17;32.24
74228;BME280;62587;52.352;5.006;2023-01-26T01:07:33;102359.94;;;21.26;31.88
74228;BME280;62587;52.352;5.006;2023-01-26T01:09:58;102368.88;;;21.25;31.86
74228;BME280;62587;52.352;5.006;2023-01-26T01:12:25;102358.91;;;21.28;32.04
74228;BME280;62587;52.352;5.006;2023-01-26T01:14:50;102367.72;;;21.30;31.93
74228;BME280;62587;52.352;5.006;2023-01-26T01:17:15;102368.25;;;21.20;32.02
74228;BME280;62587;52.352;5.006;2023-01-26T01:19:41;102362.78;;;21.23;31.79
74228;BME280;62587;52.352;5.006;2023-01-26T01:22:06;102356.47;;;21.24;31.85
74228;BME280;62587;52.352;5.006;2023-01-26T01:24:32;102369.91;;;21.22;31.84
74228;BME280;62587;52.352;5.006;2023-01-26T01:26:59;102380.63;;;21.21;32.00
74228;BME280;62587;52.352;5.006;2023-01-26T01:29:25;102378.03;;;21.19;31.97
74228;BME280;62587;52.352;5.006;2023-01-26T01:31:50;102371.78;;;21.20;32.10
74228;BME280;62587;52.352;5.006;2023-01-26T01:34:15;102378.75;;;21.23;32.01
74228;BME280;62587;52.352;5.006;2023-01-26T01:36:41;102374.34;;;21.22;32.13
74228;BME280;62587;52.352;5.006;2023-01-26T01:39:06;102377.00;;;21.22;31.90
74228;BME280;62587;52.352;5.006;2023-01-26T01:41:32;102378.75;;;21.23;32.13
74228;BME280;62587;52.352;5.006;2023-01-26T01:44:29;102368.97;;;21.23;32.29
74228;BME280;62587;52.352;5.006;2023-01-26T01:47:10;102376.00;;;21.24;32.22
74228;BME280;62587;52.352;5.006;2023-01-26T01:49:45;102377.66;;;21.27;32.16
74228;BME280;62587;52.352;5.006;2023-01-26T01:52:15;102374.91;;;21.28;32.28
74228;BME280;62587;52.352;5.006;2023-01-26T01:54:49;102378.44;;;21.29;31.94
74228;BME280;62587;52.352;5.006;2023-01-26T01:57:23;102366.06;;;21.28;32.24
74228;BME280;62587;52.352;5.006;2023-01-26T01:59:56;102371.16;;;21.32;31.98
74228;BME280;62587;52.352;5.006;2023-01-26T02:02:24;102377.28;;;21.34;31.95
74228;BME280;62587;52.352;5.006;2023-01-26T02:04:49;102377.97;;;21.38;31.93
74228;BME280;62587;52.352;5.006;2023-01-26T02:07:15;102368.25;;;21.37;32.05
74228;BME280;62587;52.352;5.006;2023-01-26T02:09:41;102371.69;;;21.39;31.97
74228;BME280;62587;52.352;5.006;2023-01-26T02:12:29;102378.78;;;21.40;32.00
74228;BME280;62587;52.352;5.006;2023-01-26T02:14:56;102375.25;;;21.40;31.90
74228;BME280;62587;52.352;5.006;2023-01-26T02:17:22;102383.13;;;21.41;32.10
74228;BME280;62587;52.352;5.006;2023-01-26T02:20:02;102373.34;;;21.42;31.88
74228;BME280;62587;52.352;5.006;2023-01-26T02:22:41;102377.75;;;21.43;31.97
74228;BME280;62587;52.352;5.006;2023-01-26T02:27:50;102376.16;;;21.38;32.04
74228;BME280;62587;52.352;5.006;2023-01-26T02:30:16;102378.91;;;21.37;32.05
74228;BME280;62587;52.352;5.006;2023-01-26T02:32:42;102377.19;;;21.36;31.99
74228;BME280;62587;52.352;5.006;2023-01-26T02:35:07;102378.91;;;21.37;31.93
74228;BME280;62587;52.352;5.006;2023-01-26T02:37:33;102381.59;;;21.37;32.01
74228;BME280;62587;52.352;5.006;2023-01-26T02:40:04;102373.59;;;21.37;32.09
74228;BME280;62587;52.352;5.006;2023-01-26T02:42:31;102372.72;;;21.36;32.01
74228;BME280;62587;52.352;5.006;2023-01-26T02:45:04;102394.91;;;21.37;32.15
74228;BME280;62587;52.352;5.006;2023-01-26T02:47:30;102398.50;;;21.36;32.19
74228;BME280;62587;52.352;5.006;2023-01-26T02:49:55;102377.19;;;21.36;32.11
74228;BME280;62587;52.352;5.006;2023-01-26T02:52:25;102390.59;;;21.34;31.88
74228;BME280;62587;52.352;5.006;2023-01-26T02:54:51;102391.47;;;21.35;32.14
74228;BME280;62587;52.352;5.006;2023-01-26T02:57:35;102397.63;;;21.35;32.04
74228;BME280;62587;52.352;5.006;2023-01-26T03:00:03;102398.59;;;21.34;32.01
74228;BME280;62587;52.352;5.006;2023-01-26T03:02:29;102396.94;;;21.32;32.17
74228;BME280;62587;52.352;5.006;2023-01-26T03:04:54;102395.06;;;21.34;32.16
74228;BME280;62587;52.352;5.006;2023-01-26T03:07:19;102383.53;;;21.33;32.12
74228;BME280;62587;52.352;5.006;2023-01-26T03:09:45;102385.34;;;21.33;32.02
74228;BME280;62587;52.352;5.006;2023-01-26T03:12:10;102382.75;;;21.31;31.93
74228;BME280;62587;52.352;5.006;2023-01-26T03:14:37;102382.75;;;21.31;32.04
74228;BME280;62587;52.352;5.006;2023-01-26T03:17:02;102387.28;;;21.29;31.92
74228;BME280;62587;52.352;5.006;2023-01-26T03:19:28;102379.22;;;21.31;32.16
74228;BME280;62587;52.352;5.006;2023-01-26T03:22:11;102393.50;;;21.30;32.22
74228;BME280;62587;52.352;5.006;2023-01-26T03:24:55;102396.22;;;21.28;32.01
74228;BME280;62587;52.352;5.006;2023-01-26T03:27:47;102395.38;;;21.28;31.95
74228;BME280;62587;52.352;5.006;2023-01-26T03:30:16;102405.06;;;21.29;32.00
74228;BME280;62587;52.352;5.006;2023-01-26T03:32:41;102398.09;;;21.26;32.03
74228;BME280;62587;52.352;5.006;2023-01-26T03:35:07;102399.84;;;21.27;32.01
74228;BME280;62587;52.352;5.006;2023-01-26T03:37:39;102400.75;;;21.26;31.99
74228;BME280;62587;52.352;5.006;2023-01-26T03:40:12;102398.19;;;21.25;32.00
74228;BME280;62587;52.352;5.006;2023-01-26T03:42:56;102399.06;;;21.25;32.27
74228;BME280;62587;52.352;5.006;2023-01-26T03:45:40;102404.44;;;21.24;32.28
74228;BME280;62587;52.352;5.006;2023-01-26T03:48:24;102399.97;;;21.24;32.16
74228;BME280;62587;52.352;5.006;2023-01-26T03:51:08;102397.41;;;21.23;32.06
74228;BME280;62587;52.352;5.006;2023-01-26T03:53:52;102386.75;;;21.23;32.06
74228;BME280;62587;52.352;5.006;2023-01-26T03:56:36;102386.81;;;21.21;32.26
74228;BME280;62587;52.352;5.006;2023-01-26T03:59:03;102392.06;;;21.23;32.39
74228;BME280;62587;52.352;5.006;2023-01-26T04:01:37;102389.47;;;21.21;32.06
74228;BME280;62587;52.352;5.006;2023-01-26T04:04:04;102385.00;;;21.22;32.17
74228;BME280;62587;52.352;5.006;2023-01-26T04:06:48;102378.91;;;21.20;32.13
74228;BME280;62587;52.352;5.006;2023-01-26T04:09:33;102392.22;;;21.20;32.08
74228;BME280;62587;52.352;5.006;2023-01-26T04:11:59;102382.47;;;21.19;32.07
74228;BME280;62587;52.352;5.006;2023-01-26T04:14:25;102389.63;;;21.18;32.10
74228;BME280;62587;52.352;5.006;2023-01-26T04:17:09;102388.69;;;21.19;32.22
74228;BME280;62587;52.352;5.006;2023-01-26T04:19:53;102382.47;;;21.19;32.36
74228;BME280;62587;52.352;5.006;2023-01-26T04:22:39;102379.03;;;21.17;32.30
74228;BME280;62587;52.352;5.006;2023-01-26T04:25:15;102379.03;;;21.17;32.02
74228;BME280;62587;52.352;5.006;2023-01-26T04:27:42;102382.56;;;21.17;32.17
74228;BME280;62587;52.352;5.006;2023-01-26T04:30:10;102393.38;;;21.14;32.50
74228;BME280;62587;52.352;5.006;2023-01-26T04:32:36;102379.13;;;21.15;32.17
74228;BME280;62587;52.352;5.006;2023-01-26T04:35:01;102385.38;;;21.14;32.45
74228;BME280;62587;52.352;5.006;2023-01-26T04:37:27;102385.31;;;21.16;32.18
74228;BME280;62587;52.352;5.006;2023-01-26T04:39:52;102380.91;;;21.15;32.12
74228;BME280;62587;52.352;5.006;2023-01-26T04:42:17;102381.88;;;21.14;32.04
74228;BME280;62587;52.352;5.006;2023-01-26T04:44:43;102377.38;;;21.14;32.33
74228;BME280;62587;52.352;5.006;2023-01-26T04:47:08;102374.72;;;21.14;32.53
74228;BME280;62587;52.352;5.006;2023-01-26T04:49:34;102370.34;;;21.13;32.45
74228;BME280;62587;52.352;5.006;2023-01-26T04:51:59;102379.22;;;21.14;32.52
74228;BME280;62587;52.352;5.006;2023-01-26T04:54:24;102372.16;;;21.13;32.30
74228;BME280;62587;52.352;5.006;2023-01-26T04:56:50;102372.06;;;21.14;32.47
74228;BME280;62587;52.352;5.006;2023-01-26T04:59:16;102365.94;;;21.12;32.33
74228;BME280;62587;52.352;5.006;2023-01-26T05:01:41;102376.56;;;21.14;32.47
74228;BME280;62587;52.352;5.006;2023-01-26T05:04:07;102372.25;;;21.11;32.50
74228;BME280;62587;52.352;5.006;2023-01-26T05:06:33;102378.41;;;21.12;32.52
74228;BME280;62587;52.352;5.006;2023-01-26T05:08:58;102373.94;;;21.12;32.52
74228;BME280;62587;52.352;5.006;2023-01-26T05:11:23;102368.72;;;21.11;32.39
74228;BME280;62587;52.352;5.006;2023-01-26T05:13:49;102374.91;;;21.11;32.23
74228;BME280;62587;52.352;5.006;2023-01-26T05:16:15;102373.16;;;21.10;32.51
74228;BME280;62587;52.352;5.006;2023-01-26T05:18:41;102376.69;;;21.11;32.45
74228;BME280;62587;52.352;5.006;2023-01-26T05:21:08;102377.63;;;21.10;32.32
74228;BME280;62587;52.352;5.006;2023-01-26T05:23:33;102368.75;;;21.09;32.74
74228;BME280;62587;52.352;5.006;2023-01-26T05:25:59;102367.84;;;21.10;32.37
74228;BME280;62587;52.352;5.006;2023-01-26T05:28:24;102371.44;;;21.09;32.31
74228;BME280;62587;52.352;5.006;2023-01-26T05:30:49;102369.63;;;21.10;32.47
74228;BME280;62587;52.352;5.006;2023-01-26T05:33:15;102367.94;;;21.09;32.41
74228;BME280;62587;52.352;5.006;2023-01-26T05:35:41;102368.84;;;21.08;32.50
74228;BME280;62587;52.352;5.006;2023-01-26T05:38:06;102380.28;;;21.10;32.70
74228;BME280;62587;52.352;5.006;2023-01-26T05:40:32;102377.72;;;21.08;32.46
74228;BME280;62587;52.352;5.006;2023-01-26T05:42:57;102381.16;;;21.10;32.45
74228;BME280;62587;52.352;5.006;2023-01-26T05:45:22;102383.03;;;21.08;32.37
74228;BME280;62587;52.352;5.006;2023-01-26T05:47:48;102381.25;;;21.09;32.68
74228;BME280;62587;52.352;5.006;2023-01-26T05:50:14;102391.03;;;21.08;32.68
74228;BME280;62587;52.352;5.006;2023-01-26T05:52:40;102389.22;;;21.09;32.58
74228;BME280;62587;52.352;5.006;2023-01-26T05:55:06;102390.16;;;21.08;32.64
74228;BME280;62587;52.352;5.006;2023-01-26T05:57:32;102393.69;;;21.08;32.72
74228;BME280;62587;52.352;5.006;2023-01-26T05:59:57;102396.34;;;21.08;32.68
74228;BME280;62587;52.352;5.006;2023-01-26T06:02:23;102399.88;;;21.09;32.46
74228;BME280;62587;52.352;5.006;2023-01-26T06:04:48;102393.75;;;21.07;32.41
74228;BME280;62587;52.352;5.006;2023-01-26T06:07:14;102400.91;;;21.06;32.48
74228;BME280;62587;52.352;5.006;2023-01-26T06:09:40;102410.69;;;21.06;32.66
74228;BME280;62587;52.352;5.006;2023-01-26T06:12:15;102407.88;;;21.09;32.73
74228;BME280;62587;52.352;5.006;2023-01-26T06:14:41;102404.41;;;21.07;32.64
74228;BME280;62587;52.352;5.006;2023-01-26T06:17:06;102401.81;;;21.05;32.76
74228;BME280;62587;52.352;5.006;2023-01-26T06:19:32;102401.81;;;21.05;32.56
74228;BME280;62587;52.352;5.006;2023-01-26T06:21:57;102397.38;;;21.06;32.70
74228;BME280;62587;52.352;5.006;2023-01-26T06:24:22;102407.16;;;21.05;32.52
74228;BME280;62587;52.352;5.006;2023-01-26T06:26:48;102414.22;;;21.06;32.52
74228;BME280;62587;52.352;5.006;2023-01-26T06:29:14;102416.94;;;21.05;32.63
74228;BME280;62587;52.352;5.006;2023-01-26T06:31:39;102418.69;;;21.04;32.74
74228;BME280;62587;52.352;5.006;2023-01-26T06:34:05;102419.59;;;21.05;32.85
74228;BME280;62587;52.352;5.006;2023-01-26T06:36:31;102420.50;;;21.04;32.77
74228;BME280;62587;52.352;5.006;2023-01-26T06:38:56;102419.66;;;21.03;32.67
74228;BME280;62587;52.352;5.006;2023-01-26T06:41:22;102424.91;;;21.05;32.86
74228;BME280;62587;52.352;5.006;2023-01-26T06:43:48;102427.56;;;21.05;32.77
74228;BME280;62587;52.352;5.006;2023-01-26T06:46:14;102425.91;;;21.02;32.81
74228;BME280;62587;52.352;5.006;2023-01-26T06:48:40;102423.53;;;20.96;32.98
74228;BME280;62587;52.352;5.006;2023-01-26T06:53:41;102428.88;;;20.96;33.01
74228;BME280;62587;52.352;5.006;2023-01-26T06:56:07;102428.00;;;20.96;32.93
74228;BME280;62587;52.352;5.006;2023-01-26T06:58:33;102442.31;;;20.93;32.86
74228;BME280;62587;52.352;5.006;2023-01-26T07:00:58;102445.94;;;20.92;33.30
74228;BME280;62587;52.352;5.006;2023-01-26T07:03:24;102439.78;;;20.90;33.23
74228;BME280;62587;52.352;5.006;2023-01-26T07:05:50;102441.63;;;20.90;33.21
74228;BME280;62587;52.352;5.006;2023-01-26T07:08:15;102446.94;;;20.90;33.32
74228;BME280;62587;52.352;5.006;2023-01-26T07:10:40;102448.75;;;20.89;33.30
74228;BME280;62587;52.352;5.006;2023-01-26T07:13:06;102453.19;;;20.89;33.13
74228;BME280;62587;52.352;5.006;2023-01-26T07:15:31;102453.28;;;20.87;33.24
74228;BME280;62587;52.352;5.006;2023-01-26T07:17:57;102456.84;;;20.86;33.45
74228;BME280;62587;52.352;5.006;2023-01-26T07:20:23;102456.06;;;20.84;33.51
74228;BME280;62587;52.352;5.006;2023-01-26T07:22:49;102452.53;;;20.84;33.64
74228;BME280;62587;52.352;5.006;2023-01-26T07:25:15;102458.72;;;20.84;33.23
74228;BME280;62587;52.352;5.006;2023-01-26T07:27:41;102463.19;;;20.84;33.31
74228;BME280;62587;52.352;5.006;2023-01-26T07:30:07;102462.31;;;20.83;33.56
74228;BME280;62587;52.352;5.006;2023-01-26T07:32:33;102466.81;;;20.83;33.31
74228;BME280;62587;52.352;5.006;2023-01-26T07:34:58;102461.47;;;20.83;33.47
74228;BME280;62587;52.352;5.006;2023-01-26T07:37:27;102469.59;;;20.80;33.53
74228;BME280;62587;52.352;5.006;2023-01-26T07:39:52;102470.53;;;20.79;33.55
74228;BME280;62587;52.352;5.006;2023-01-26T07:42:17;102467.88;;;20.79;33.68
74228;BME280;62587;52.352;5.006;2023-01-26T07:44:43;102476.50;;;20.84;33.30
74228;BME280;62587;52.352;5.006;2023-01-26T07:47:08;102485.22;;;20.87;33.51
74228;BME280;62587;52.352;5.006;2023-01-26T07:49:33;102483.34;;;20.89;33.89
74228;BME280;62587;52.352;5.006;2023-01-26T07:51:59;102482.69;;;20.84;33.48
74228;BME280;62587;52.352;5.006;2023-01-26T07:54:24;102478.16;;;20.86;33.82
74228;BME280;62587;52.352;5.006;2023-01-26T07:56:51;102487.16;;;20.84;33.72
74228;BME280;62587;52.352;5.006;2023-01-26T07:59:17;102492.19;;;20.90;33.57
74228;BME280;62587;52.352;5.006;2023-01-26T08:01:42;102490.47;;;20.89;33.62
74228;BME280;62587;52.352;5.006;2023-01-26T08:04:07;102500.97;;;20.92;33.43
74228;BME280;62587;52.352;5.006;2023-01-26T08:06:33;102496.44;;;20.94;33.50
74228;BME280;62587;52.352;5.006;2023-01-26T08:08:58;102495.34;;;20.98;33.58
74228;BME280;62587;52.352;5.006;2023-01-26T08:11:23;102502.28;;;21.02;33.55
74228;BME280;62587;52.352;5.006;2023-01-26T08:13:50;102495.91;;;21.06;33.47
74228;BME280;62587;52.352;5.006;2023-01-26T08:16:15;102503.66;;;21.10;33.41
74228;BME280;62587;52.352;5.006;2023-01-26T08:18:43;102500.91;;;21.12;33.24
74228;BME280;62587;52.352;5.006;2023-01-26T08:21:09;102503.31;;;21.18;33.18
74228;BME280;62587;52.352;5.006;2023-01-26T08:23:35;102496.88;;;21.22;33.27
74228;BME280;62587;52.352;5.006;2023-01-26T08:26:06;102508.31;;;21.24;33.38
74228;BME280;62587;52.352;5.006;2023-01-26T08:28:32;102507.31;;;21.26;33.51
74228;BME280;62587;52.352;5.006;2023-01-26T08:31:24;102521.44;;;21.28;33.43
74228;BME280;62587;52.352;5.006;2023-01-26T08:33:51;102522.16;;;21.32;33.34
74228;BME280;62587;52.352;5.006;2023-01-26T08:36:17;102523.03;;;21.32;33.37
74228;BME280;62587;52.352;5.006;2023-01-26T08:38:43;102519.34;;;21.35;33.37
74228;BME280;62587;52.352;5.006;2023-01-26T08:41:09;102529.00;;;21.38;33.32
74228;BME280;62587;52.352;5.006;2023-01-26T08:43:35;102528.91;;;21.39;33.12
74228;BME280;62587;52.352;5.006;2023-01-26T08:46:01;102523.44;;;21.42;33.16
74228;BME280;62587;52.352;5.006;2023-01-26T08:48:27;102519.59;;;21.48;33.14
74228;BME280;62587;52.352;5.006;2023-01-26T08:50:55;102529.19;;;21.52;33.03
74228;BME280;62587;52.352;5.006;2023-01-26T08:53:21;102534.34;;;21.55;33.18
74228;BME280;62587;52.352;5.006;2023-01-26T08:55:47;102533.56;;;21.53;33.12
74228;BME280;62587;52.352;5.006;2023-01-26T08:58:12;102534.44;;;21.53;33.15
74228;BME280;62587;52.352;5.006;2023-01-26T09:00:38;102534.34;;;21.55;33.10
74228;BME280;62587;52.352;5.006;2023-01-26T09:03:04;102530.75;;;21.56;33.16
74228;BME280;62587;52.352;5.006;2023-01-26T09:05:35;102538.66;;;21.57;32.98
74228;BME280;62587;52.352;5.006;2023-01-26T09:08:02;102547.84;;;21.52;33.11
74228;BME280;62587;52.352;5.006;2023-01-26T09:10:27;102545.88;;;21.55;33.09
74228;BME280;62587;52.352;5.006;2023-01-26T09:12:53;102545.19;;;21.52;33.21
74228;BME280;62587;52.352;5.006;2023-01-26T09:15:18;102551.38;;;21.52;33.10
74228;BME280;62587;52.352;5.006;2023-01-26T09:17:47;102554.41;;;21.45;33.80
74228;BME280;62587;52.352;5.006;2023-01-26T09:20:13;102550.56;;;21.50;33.48
74228;BME280;62587;52.352;5.006;2023-01-26T09:22:38;102549.09;;;21.45;33.55
74228;BME280;62587;52.352;5.006;2023-01-26T09:25:04;102561.91;;;21.36;33.76
74228;BME280;62587;52.352;5.006;2023-01-26T09:27:30;102544.41;;;21.31;33.89
74228;BME280;62587;52.352;5.006;2023-01-26T09:29:55;102545.22;;;21.33;33.92
74228;BME280;62587;52.352;5.006;2023-01-26T09:32:21;102544.34;;;21.32;33.92
74228;BME280;62587;52.352;5.006;2023-01-26T09:34:47;102554.78;;;21.37;33.97
74228;BME280;62587;52.352;5.006;2023-01-26T09:37:12;102555.66;;;21.38;33.93
74228;BME280;62587;52.352;5.006;2023-01-26T09:39:38;102547.25;;;21.45;33.97
74228;BME280;62587;52.352;5.006;2023-01-26T09:42:16;102551.38;;;21.52;34.07
74228;BME280;62587;52.352;5.006;2023-01-26T09:44:57;102551.94;;;21.59;33.81
74228;BME280;62587;52.352;5.006;2023-01-26T09:47:30;102550.69;;;21.66;33.77
74228;BME280;62587;52.352;5.006;2023-01-26T09:50:08;102548.59;;;21.72;33.67
74228;BME280;62587;52.352;5.006;2023-01-26T09:52:39;102546.56;;;21.77;33.70
74228;BME280;62587;52.352;5.006;2023-01-26T09:55:14;102554.22;;;21.85;33.40
74228;BME280;62587;52.352;5.006;2023-01-26T09:58:14;102552.19;;;21.90;33.32
74228;BME280;62587;52.352;5.006;2023-01-26T10:00:45;102546.63;;;21.94;33.27
74228;BME280;62587;52.352;5.006;2023-01-26T10:05:45;102555.03;;;22.04;33.47
74228;BME280;62587;52.352;5.006;2023-01-26T10:08:13;102548.75;;;22.05;33.56
74228;BME280;62587;52.352;5.006;2023-01-26T10:10:44;102548.53;;;22.10;33.37
74228;BME280;62587;52.352;5.006;2023-01-26T10:13:15;102550.94;;;22.14;33.37
74228;BME280;62587;52.352;5.006;2023-01-26T10:15:42;102551.66;;;22.18;33.95
74228;BME280;62587;52.352;5.006;2023-01-26T10:18:25;102550.00;;;22.15;33.53
74228;BME280;62587;52.352;5.006;2023-01-26T10:20:55;102553.53;;;22.16;33.52
74228;BME280;62587;52.352;5.006;2023-01-26T10:23:28;102558.78;;;22.17;33.31
74228;BME280;62587;52.352;5.006;2023-01-26T10:26:14;102559.66;;;22.18;33.61
74228;BME280;62587;52.352;5.006;2023-01-26T10:28:41;102553.44;;;22.17;33.50
74228;BME280;62587;52.352;5.006;2023-01-26T10:31:33;102568.44;;;22.20;33.57
74228;BME280;62587;52.352;5.006;2023-01-26T10:34:04;102567.41;;;22.22;33.67
74228;BME280;62587;52.352;5.006;2023-01-26T10:36:33;102566.63;;;22.20;33.65
74228;BME280;62587;52.352;5.006;2023-01-26T10:39:07;102574.63;;;22.20;33.74
74228;BME280;62587;52.352;5.006;2023-01-26T10:41:33;102569.31;;;22.20;33.59
74228;BME280;62587;52.352;5.006;2023-01-26T10:44:23;102572.06;;;22.19;33.63
74228;BME280;62587;52.352;5.006;2023-01-26T10:47:22;102572.06;;;22.19;33.74
74228;BME280;62587;52.352;5.006;2023-01-26T10:49:48;102578.31;;;22.18;33.73
74228;BME280;62587;52.352;5.006;2023-01-26T10:52:16;102574.00;;;22.15;33.96
74228;BME280;62587;52.352;5.006;2023-01-26T10:54:43;102581.38;;;22.10;34.12
74228;BME280;62587;52.352;5.006;2023-01-26T10:57:21;102584.91;;;22.11;34.10
74228;BME280;62587;52.352;5.006;2023-01-26T10:59:56;102584.28;;;22.06;34.09
74228;BME280;62587;52.352;5.006;2023-01-26T11:02:23;102571.81;;;22.06;34.23
74228;BME280;62587;52.352;5.006;2023-01-26T11:05:14;102569.00;;;22.09;34.34
74228;BME280;62587;52.352;5.006;2023-01-26T11:07:42;102572.59;;;22.08;34.24
74228;BME280;62587;52.352;5.006;2023-01-26T11:10:21;102569.28;;;22.03;34.47
74228;BME280;62587;52.352;5.006;2023-01-26T11:12:48;102575.25;;;22.08;34.40
74228;BME280;62587;52.352;5.006;2023-01-26T11:20:42;102565.69;;;22.04;34.76
74228;BME280;62587;52.352;5.006;2023-01-26T11:31:45;102564.81;;;22.03;34.68
74228;BME280;62587;52.352;5.006;2023-01-26T11:34:30;102570.78;;;22.09;34.58
74228;BME280;62587;52.352;5.006;2023-01-26T11:40:29;102571.50;;;22.12;34.64
74228;BME280;62587;52.352;5.006;2023-01-26T11:45:49;102565.56;;;22.24;34.01
74228;BME280;62587;52.352;5.006;2023-01-26T11:48:50;102565.38;;;22.27;34.47
74228;BME280;62587;52.352;5.006;2023-01-26T11:51:39;102561.69;;;22.13;34.92
74228;BME280;62587;52.352;5.006;2023-01-26T11:54:36;102561.13;;;22.06;34.84
74228;BME280;62587;52.352;5.006;2023-01-26T11:57:47;102563.03;;;22.04;34.83
74228;BME280;62587;52.352;5.006;2023-01-26T12:01:01;102560.97;;;21.92;35.09
74228;BME280;62587;52.352;5.006;2023-01-26T12:03:46;102553.91;;;21.91;34.96
74228;BME280;62587;52.352;5.006;2023-01-26T12:06:37;102550.78;;;21.81;35.22
74228;BME280;62587;52.352;5.006;2023-01-26T12:09:26;102550.84;;;21.98;34.81
74228;BME280;62587;52.352;5.006;2023-01-26T12:12:08;102547.88;;;22.05;34.69
74228;BME280;62587;52.352;5.006;2023-01-26T12:14:46;102545.13;;;22.06;34.77
74228;BME280;62587;52.352;5.006;2023-01-26T12:17:26;102545.13;;;22.06;34.68
74228;BME280;62587;52.352;5.006;2023-01-26T12:25:53;102525.38;;;21.93;34.82
74228;BME280;62587;52.352;5.006;2023-01-26T12:28:26;102530.00;;;21.89;34.83
74228;BME280;62587;52.352;5.006;2023-01-26T12:31:12;102515.94;;;21.86;35.03
74228;BME280;62587;52.352;5.006;2023-01-26T12:33:40;102519.25;;;21.72;35.16
74228;BME280;62587;52.352;5.006;2023-01-26T12:39:25;102510.38;;;21.90;34.96
74228;BME280;62587;52.352;5.006;2023-01-26T12:49:55;102497.47;;;21.81;34.92
74228;BME280;62587;52.352;5.006;2023-01-26T12:52:29;102502.69;;;21.84;34.74
74228;BME280;62587;52.352;5.006;2023-01-26T12:55:11;102499.50;;;21.76;35.16
74228;BME280;62587;52.352;5.006;2023-01-26T13:03:25;102493.38;;;21.93;36.00
74228;BME280;62587;52.352;5.006;2023-01-26T13:06:18;102493.91;;;21.99;36.21
74228;BME280;62587;52.352;5.006;2023-01-26T13:08:48;102485.56;;;21.88;36.05
74228;BME280;62587;52.352;5.006;2023-01-26T13:11:40;102491.69;;;21.73;36.30
74228;BME280;62587;52.352;5.006;2023-01-26T13:16:55;102498.41;;;21.63;36.29
74228;BME280;62587;52.352;5.006;2023-01-26T13:19:34;102494.88;;;21.63;36.10
74228;BME280;62587;52.352;5.006;2023-01-26T13:22:00;102490.50;;;21.62;36.12
74228;BME280;62587;52.352;5.006;2023-01-26T13:26:57;102487.00;;;21.60;36.13
74228;BME280;62587;52.352;5.006;2023-01-26T13:29:28;102491.56;;;21.58;36.01
74228;BME280;62587;52.352;5.006;2023-01-26T13:31:59;102490.78;;;21.56;35.75
74228;BME280;62587;52.352;5.006;2023-01-26T13:34:31;102497.91;;;21.55;35.92
74228;BME280;62587;52.352;5.006;2023-01-26T13:37:07;102496.66;;;21.62;35.54
74228;BME280;62587;52.352;5.006;2023-01-26T13:39:34;102497.25;;;21.69;35.31
74228;BME280;62587;52.352;5.006;2023-01-26T13:42:01;102498.03;;;21.71;35.26
74228;BME280;62587;52.352;5.006;2023-01-26T13:44:43;102502.34;;;21.73;35.19
74228;BME280;62587;52.352;5.006;2023-01-26T13:47:15;102510.25;;;21.75;35.44
74228;BME280;62587;52.352;5.006;2023-01-26T13:49:43;102504.81;;;21.76;35.52
74228;BME280;62587;52.352;5.006;2023-01-26T13:52:17;102509.88;;;21.82;35.21
74228;BME280;62587;52.352;5.006;2023-01-26T13:54:44;102508.88;;;21.85;35.24
74228;BME280;62587;52.352;5.006;2023-01-26T13:57:10;102511.31;;;21.89;35.40
74228;BME280;62587;52.352;5.006;2023-01-26T14:02:37;102490.75;;;21.91;35.17
74228;BME280;62587;52.352;5.006;2023-01-26T14:05:03;102487.31;;;21.89;35.26